sensor_id;sensor_type;location;lat;lon;timestamp;temperature;humidity
10411;DHT22;5251;52.112;8.606;2024-01-07T00:01:27;3.70;99.90
10411;DHT22;5251;52.112;8.606;2024-01-07T00:03:52;3.70;99.90
10411;DHT22;5251;52.112;8.606;2024-01-07T00:06:18;3.70;99.90
10411;DHT22;5251;52.112;8.606;2024-01-07T00:08:44;3.70;99.90
10411;DHT22;5251;52.112;8.606;2024-01-07T00:11:09;3.60;99.90
10411;DHT22;5251;52.112;8.606;2024-01-07T00:13:35;3.60;99.90
10411;DHT22;5251;52.112;8.606;2024-01-07T00:16:01;3.60;99.90
10411;DHT22;5251;52.112;8.606;2024-01-07T00:18:27;3.50;99.90
10411;DHT22;5251;52.112;8.606;2024-01-07T00:20:53;3.50;99.90
10411;DHT22;5251;52.112;8.606;2024-01-07T00:23:19;3.50;99.90
10411;DHT22;5251;52.112;8.606;2024-01-07T00:25:46;3.50;99.90
10411;DHT22;5251;52.112;8.606;2024-01-07T00:28:12;3.50;99.90
10411;DHT22;5251;52.112;8.606;2024-01-07T00:30:38;3.40;99.90
10411;DHT22;5251;52.112;8.606;2024-01-07T00:33:03;3.50;99.90
10411;DHT22;5251;52.112;8.606;2024-01-07T00:35:29;3.50;99.90
10411;DHT22;5251;52.112;8.606;2024-01-07T00:37:55;3.40;99.90
10411;DHT22;5251;52.112;8.606;2024-01-07T00:40:22;3.50;99.90
10411;DHT22;5251;52.112;8.606;2024-01-07T00:42:48;3.50;99.90
10411;DHT22;5251;52.112;8.606;2024-01-07T00:45:14;3.50;99.90
10411;DHT22;5251;52.112;8.606;2024-01-07T00:47:39;3.50;99.90
10411;DHT22;5251;52.112;8.606;2024-01-07T00:50:05;3.50;99.90
10411;DHT22;5251;52.112;8.606;2024-01-07T00:52:31;3.50;99.90
10411;DHT22;5251;52.112;8.606;2024-01-07T00:54:56;3.50;99.90
10411;DHT22;5251;52.112;8.606;2024-01-07T00:57:22;3.50;99.90
10411;DHT22;5251;52.112;8.606;2024-01-07T00:59:48;3.50;99.90
10411;DHT22;5251;52.112;8.606;2024-01-07T01:02:15;3.50;99.90
10411;DHT22;5251;52.112;8.606;2024-01-07T01:04:41;3.50;99.90
10411;DHT22;5251;52.112;8.606;2024-01-07T01:07:07;3.60;99.90
10411;DHT22;5251;52.112;8.606;2024-01-07T01:09:33;3.50;99.90
10411;DHT22;5251;52.112;8.606;2024-01-07T01:11:59;3.50;99.90
10411;DHT22;5251;52.112;8.606;2024-01-07T01:14:24;3.50;99.90
10411;DHT22;5251;52.112;8.606;2024-01-07T01:16:50;3.50;99.90
10411;DHT22;5251;52.112;8.606;2024-01-07T01:19:16;3.50;99.90
10411;DHT22;5251;52.112;8.606;2024-01-07T01:21:42;3.40;99.90
10411;DHT22;5251;52.112;8.606;2024-01-07T01:24:08;3.40;99.90
10411;DHT22;5251;52.112;8.606;2024-01-07T01:26:33;3.50;99.90
10411;DHT22;5251;52.112;8.606;2024-01-07T01:28:59;3.40;99.90
10411;DHT22;5251;52.112;8.606;2024-01-07T01:31:24;3.50;99.90
10411;DHT22;5251;52.112;8.606;2024-01-07T01:33:50;3.50;99.90
10411;DHT22;5251;52.112;8.606;2024-01-07T01:36:16;3.40;99.90
10411;DHT22;5251;52.112;8.606;2024-01-07T01:38:41;3.80;99.90
10411;DHT22;5251;52.112;8.606;2024-01-07T01:41:07;3.50;99.90
10411;DHT22;5251;52.112;8.606;2024-01-07T01:43:32;3.50;99.90
10411;DHT22;5251;52.112;8.606;2024-01-07T01:45:58;3.50;99.90
10411;DHT22;5251;52.112;8.606;2024-01-07T01:48:25;3.50;99.90
10411;DHT22;5251;52.112;8.606;2024-01-07T01:50:52;3.40;99.90
10411;DHT22;5251;52.112;8.606;2024-01-07T01:53:19;3.50;99.90
10411;DHT22;5251;52.112;8.606;2024-01-07T01:55:45;3.50;99.90
10411;DHT22;5251;52.112;8.606;2024-01-07T01:58:13;3.50;99.90
10411;DHT22;5251;52.112;8.606;2024-01-07T02:00:39;3.50;99.90
10411;DHT22;5251;52.112;8.606;2024-01-07T02:03:05;3.50;99.80
10411;DHT22;5251;52.112;8.606;2024-01-07T02:05:31;3.50;99.90
10411;DHT22;5251;52.112;8.606;2024-01-07T02:07:57;3.50;99.80
10411;DHT22;5251;52.112;8.606;2024-01-07T02:10:24;3.60;99.90
10411;DHT22;5251;52.112;8.606;2024-01-07T02:12:49;3.60;99.70
10411;DHT22;5251;52.112;8.606;2024-01-07T02:15:15;3.50;99.50
10411;DHT22;5251;52.112;8.606;2024-01-07T02:17:41;3.50;99.50
10411;DHT22;5251;52.112;8.606;2024-01-07T02:20:07;3.50;99.50
10411;DHT22;5251;52.112;8.606;2024-01-07T02:22:33;3.50;99.60
10411;DHT22;5251;52.112;8.606;2024-01-07T02:24:58;3.50;99.40
10411;DHT22;5251;52.112;8.606;2024-01-07T02:27:24;3.40;99.50
10411;DHT22;5251;52.112;8.606;2024-01-07T02:29:49;3.50;99.40
10411;DHT22;5251;52.112;8.606;2024-01-07T02:32:15;3.50;99.50
10411;DHT22;5251;52.112;8.606;2024-01-07T02:34:41;3.50;99.50
10411;DHT22;5251;52.112;8.606;2024-01-07T02:37:06;3.40;99.50
10411;DHT22;5251;52.112;8.606;2024-01-07T02:39:32;3.40;99.40
10411;DHT22;5251;52.112;8.606;2024-01-07T02:41:57;3.40;99.50
10411;DHT22;5251;52.112;8.606;2024-01-07T02:44:23;3.40;99.50
10411;DHT22;5251;52.112;8.606;2024-01-07T02:46:49;3.40;99.50
10411;DHT22;5251;52.112;8.606;2024-01-07T02:49:14;3.40;99.50
10411;DHT22;5251;52.112;8.606;2024-01-07T02:51:40;3.40;99.40
10411;DHT22;5251;52.112;8.606;2024-01-07T02:54:06;3.40;99.40
10411;DHT22;5251;52.112;8.606;2024-01-07T02:56:31;3.40;99.50
10411;DHT22;5251;52.112;8.606;2024-01-07T02:58:57;3.40;99.50
10411;DHT22;5251;52.112;8.606;2024-01-07T03:01:23;3.40;99.40
10411;DHT22;5251;52.112;8.606;2024-01-07T03:03:48;3.40;99.40
10411;DHT22;5251;52.112;8.606;2024-01-07T03:06:14;3.40;99.20
10411;DHT22;5251;52.112;8.606;2024-01-07T03:08:40;3.30;99.10
10411;DHT22;5251;52.112;8.606;2024-01-07T03:11:06;3.30;99.20
10411;DHT22;5251;52.112;8.606;2024-01-07T03:13:32;3.30;99.30
10411;DHT22;5251;52.112;8.606;2024-01-07T03:15:58;3.30;99.10
10411;DHT22;5251;52.112;8.606;2024-01-07T03:18:24;3.30;99.30
10411;DHT22;5251;52.112;8.606;2024-01-07T03:20:49;3.30;99.20
10411;DHT22;5251;52.112;8.606;2024-01-07T03:23:15;3.30;99.00
10411;DHT22;5251;52.112;8.606;2024-01-07T03:25:40;3.20;99.00
10411;DHT22;5251;52.112;8.606;2024-01-07T03:28:06;3.20;99.00
10411;DHT22;5251;52.112;8.606;2024-01-07T03:30:32;3.20;99.20
10411;DHT22;5251;52.112;8.606;2024-01-07T03:32:57;3.30;99.30
10411;DHT22;5251;52.112;8.606;2024-01-07T03:35:23;3.30;99.30
10411;DHT22;5251;52.112;8.606;2024-01-07T03:37:49;3.20;99.40
10411;DHT22;5251;52.112;8.606;2024-01-07T03:40:15;3.30;99.60
10411;DHT22;5251;52.112;8.606;2024-01-07T03:42:41;3.20;99.60
10411;DHT22;5251;52.112;8.606;2024-01-07T03:45:06;3.20;99.70
10411;DHT22;5251;52.112;8.606;2024-01-07T03:47:32;3.10;99.80
10411;DHT22;5251;52.112;8.606;2024-01-07T03:49:58;3.00;99.90
10411;DHT22;5251;52.112;8.606;2024-01-07T03:52:23;2.90;99.90
10411;DHT22;5251;52.112;8.606;2024-01-07T03:54:49;2.80;99.90
10411;DHT22;5251;52.112;8.606;2024-01-07T03:57:15;2.70;99.90
10411;DHT22;5251;52.112;8.606;2024-01-07T03:59:40;2.60;99.90
10411;DHT22;5251;52.112;8.606;2024-01-07T04:02:06;2.60;99.90
10411;DHT22;5251;52.112;8.606;2024-01-07T04:04:32;2.50;99.90
10411;DHT22;5251;52.112;8.606;2024-01-07T04:06:57;2.40;99.90
10411;DHT22;5251;52.112;8.606;2024-01-07T04:09:23;2.40;99.90
10411;DHT22;5251;52.112;8.606;2024-01-07T04:11:49;2.40;99.90
10411;DHT22;5251;52.112;8.606;2024-01-07T04:14:17;2.40;99.90
10411;DHT22;5251;52.112;8.606;2024-01-07T04:16:43;2.40;99.90
10411;DHT22;5251;52.112;8.606;2024-01-07T04:19:08;2.40;99.90
10411;DHT22;5251;52.112;8.606;2024-01-07T04:21:34;2.50;99.90
10411;DHT22;5251;52.112;8.606;2024-01-07T04:24:01;2.50;99.90
10411;DHT22;5251;52.112;8.606;2024-01-07T04:26:26;2.50;99.90
10411;DHT22;5251;52.112;8.606;2024-01-07T04:28:52;2.40;99.90
10411;DHT22;5251;52.112;8.606;2024-01-07T04:31:18;2.50;99.90
10411;DHT22;5251;52.112;8.606;2024-01-07T04:33:43;2.40;99.90
10411;DHT22;5251;52.112;8.606;2024-01-07T04:36:09;2.30;99.90
10411;DHT22;5251;52.112;8.606;2024-01-07T04:38:35;2.30;99.90
10411;DHT22;5251;52.112;8.606;2024-01-07T04:41:01;2.20;99.90
10411;DHT22;5251;52.112;8.606;2024-01-07T04:43:26;2.30;99.90
10411;DHT22;5251;52.112;8.606;2024-01-07T04:45:52;2.20;99.90
10411;DHT22;5251;52.112;8.606;2024-01-07T04:48:17;2.20;99.90
10411;DHT22;5251;52.112;8.606;2024-01-07T04:50:43;2.30;99.90
10411;DHT22;5251;52.112;8.606;2024-01-07T04:53:09;2.30;99.90
10411;DHT22;5251;52.112;8.606;2024-01-07T04:55:36;2.20;99.90
10411;DHT22;5251;52.112;8.606;2024-01-07T04:58:01;2.20;99.90
10411;DHT22;5251;52.112;8.606;2024-01-07T05:00:27;2.20;99.90
10411;DHT22;5251;52.112;8.606;2024-01-07T05:02:53;2.20;99.90
10411;DHT22;5251;52.112;8.606;2024-01-07T05:05:18;2.20;99.90
10411;DHT22;5251;52.112;8.606;2024-01-07T05:07:44;2.20;99.90
10411;DHT22;5251;52.112;8.606;2024-01-07T05:10:10;2.20;99.90
10411;DHT22;5251;52.112;8.606;2024-01-07T05:12:35;2.20;99.90
10411;DHT22;5251;52.112;8.606;2024-01-07T05:15:01;2.20;99.90
10411;DHT22;5251;52.112;8.606;2024-01-07T05:17:28;2.20;99.90
10411;DHT22;5251;52.112;8.606;2024-01-07T05:19:54;2.20;99.90
10411;DHT22;5251;52.112;8.606;2024-01-07T05:22:21;2.20;99.90
10411;DHT22;5251;52.112;8.606;2024-01-07T05:24:46;2.20;99.80
10411;DHT22;5251;52.112;8.606;2024-01-07T05:27:12;2.20;99.80
10411;DHT22;5251;52.112;8.606;2024-01-07T05:29:37;2.20;99.80
10411;DHT22;5251;52.112;8.606;2024-01-07T05:32:03;2.10;99.70
10411;DHT22;5251;52.112;8.606;2024-01-07T05:34:29;2.10;99.70
10411;DHT22;5251;52.112;8.606;2024-01-07T05:36:55;2.20;99.90
10411;DHT22;5251;52.112;8.606;2024-01-07T05:39:20;2.20;99.90
10411;DHT22;5251;52.112;8.606;2024-01-07T05:41:46;2.10;99.70
10411;DHT22;5251;52.112;8.606;2024-01-07T05:44:12;2.10;99.80
10411;DHT22;5251;52.112;8.606;2024-01-07T05:46:39;2.10;99.70
10411;DHT22;5251;52.112;8.606;2024-01-07T05:49:05;2.10;99.70
10411;DHT22;5251;52.112;8.606;2024-01-07T05:51:30;2.10;99.70
10411;DHT22;5251;52.112;8.606;2024-01-07T05:53:56;2.00;99.70
10411;DHT22;5251;52.112;8.606;2024-01-07T05:56:22;2.10;99.90
10411;DHT22;5251;52.112;8.606;2024-01-07T05:58:47;2.10;99.90
10411;DHT22;5251;52.112;8.606;2024-01-07T06:01:19;2.00;99.70
10411;DHT22;5251;52.112;8.606;2024-01-07T06:03:45;2.00;99.50
10411;DHT22;5251;52.112;8.606;2024-01-07T06:06:12;2.00;99.70
10411;DHT22;5251;52.112;8.606;2024-01-07T06:08:38;2.00;99.50
10411;DHT22;5251;52.112;8.606;2024-01-07T06:11:03;2.00;99.50
10411;DHT22;5251;52.112;8.606;2024-01-07T06:13:29;2.00;99.50
10411;DHT22;5251;52.112;8.606;2024-01-07T06:15:55;2.00;99.40
10411;DHT22;5251;52.112;8.606;2024-01-07T06:18:20;2.00;99.10
10411;DHT22;5251;52.112;8.606;2024-01-07T06:20:46;1.90;98.70
10411;DHT22;5251;52.112;8.606;2024-01-07T06:23:12;1.90;99.00
10411;DHT22;5251;52.112;8.606;2024-01-07T06:25:37;1.80;99.30
10411;DHT22;5251;52.112;8.606;2024-01-07T06:28:04;1.80;99.30
10411;DHT22;5251;52.112;8.606;2024-01-07T06:30:30;1.80;99.40
10411;DHT22;5251;52.112;8.606;2024-01-07T06:32:56;1.80;99.00
10411;DHT22;5251;52.112;8.606;2024-01-07T06:35:21;1.80;99.20
10411;DHT22;5251;52.112;8.606;2024-01-07T06:37:47;1.80;99.10
10411;DHT22;5251;52.112;8.606;2024-01-07T06:40:12;1.70;98.80
10411;DHT22;5251;52.112;8.606;2024-01-07T06:42:38;1.70;98.90
10411;DHT22;5251;52.112;8.606;2024-01-07T06:45:05;1.70;99.10
10411;DHT22;5251;52.112;8.606;2024-01-07T06:47:30;1.70;98.70
10411;DHT22;5251;52.112;8.606;2024-01-07T06:49:56;1.80;98.70
10411;DHT22;5251;52.112;8.606;2024-01-07T06:52:21;1.70;98.70
10411;DHT22;5251;52.112;8.606;2024-01-07T06:54:47;1.80;98.70
10411;DHT22;5251;52.112;8.606;2024-01-07T06:57:13;1.80;98.40
10411;DHT22;5251;52.112;8.606;2024-01-07T06:59:39;1.70;97.70
10411;DHT22;5251;52.112;8.606;2024-01-07T07:02:05;1.70;97.80
10411;DHT22;5251;52.112;8.606;2024-01-07T07:04:30;1.70;97.80
10411;DHT22;5251;52.112;8.606;2024-01-07T07:06:56;1.60;97.70
10411;DHT22;5251;52.112;8.606;2024-01-07T07:09:23;1.60;97.60
10411;DHT22;5251;52.112;8.606;2024-01-07T07:11:48;1.50;97.60
10411;DHT22;5251;52.112;8.606;2024-01-07T07:14:14;1.50;97.50
10411;DHT22;5251;52.112;8.606;2024-01-07T07:16:40;1.40;97.40
10411;DHT22;5251;52.112;8.606;2024-01-07T07:19:05;1.50;97.70
10411;DHT22;5251;52.112;8.606;2024-01-07T07:21:31;1.50;97.90
10411;DHT22;5251;52.112;8.606;2024-01-07T07:23:57;1.50;97.40
10411;DHT22;5251;52.112;8.606;2024-01-07T07:26:23;1.40;97.40
10411;DHT22;5251;52.112;8.606;2024-01-07T07:28:48;1.50;97.60
10411;DHT22;5251;52.112;8.606;2024-01-07T07:31:14;1.50;97.60
10411;DHT22;5251;52.112;8.606;2024-01-07T07:33:40;1.50;97.40
10411;DHT22;5251;52.112;8.606;2024-01-07T07:36:06;1.50;97.50
10411;DHT22;5251;52.112;8.606;2024-01-07T07:38:32;1.50;97.40
10411;DHT22;5251;52.112;8.606;2024-01-07T07:40:59;1.60;97.60
10411;DHT22;5251;52.112;8.606;2024-01-07T07:43:25;1.60;97.20
10411;DHT22;5251;52.112;8.606;2024-01-07T07:45:51;1.60;97.30
10411;DHT22;5251;52.112;8.606;2024-01-07T07:48:17;1.60;97.10
10411;DHT22;5251;52.112;8.606;2024-01-07T07:50:43;1.60;97.20
10411;DHT22;5251;52.112;8.606;2024-01-07T07:53:09;1.60;96.80
10411;DHT22;5251;52.112;8.606;2024-01-07T07:55:34;1.60;96.90
10411;DHT22;5251;52.112;8.606;2024-01-07T07:58:00;1.60;96.80
10411;DHT22;5251;52.112;8.606;2024-01-07T08:00:26;1.70;97.00
10411;DHT22;5251;52.112;8.606;2024-01-07T08:02:51;1.70;97.10
10411;DHT22;5251;52.112;8.606;2024-01-07T08:05:17;1.70;97.10
10411;DHT22;5251;52.112;8.606;2024-01-07T08:07:43;1.80;96.80
10411;DHT22;5251;52.112;8.606;2024-01-07T08:10:08;1.80;96.80
10411;DHT22;5251;52.112;8.606;2024-01-07T08:12:34;1.80;96.80
10411;DHT22;5251;52.112;8.606;2024-01-07T08:15:00;1.90;96.80
10411;DHT22;5251;52.112;8.606;2024-01-07T08:17:26;1.90;96.30
10411;DHT22;5251;52.112;8.606;2024-01-07T08:19:51;1.90;95.50
10411;DHT22;5251;52.112;8.606;2024-01-07T08:22:18;1.90;95.60
10411;DHT22;5251;52.112;8.606;2024-01-07T08:24:44;1.90;95.20
10411;DHT22;5251;52.112;8.606;2024-01-07T08:27:09;1.90;95.50
10411;DHT22;5251;52.112;8.606;2024-01-07T08:29:35;1.90;95.40
10411;DHT22;5251;52.112;8.606;2024-01-07T08:32:01;1.90;95.70
10411;DHT22;5251;52.112;8.606;2024-01-07T08:34:26;1.90;95.80
10411;DHT22;5251;52.112;8.606;2024-01-07T08:36:52;2.00;95.00
10411;DHT22;5251;52.112;8.606;2024-01-07T08:39:19;1.90;94.80
10411;DHT22;5251;52.112;8.606;2024-01-07T08:41:45;1.90;94.80
10411;DHT22;5251;52.112;8.606;2024-01-07T08:44:11;1.90;94.30
10411;DHT22;5251;52.112;8.606;2024-01-07T08:46:37;1.90;94.40
10411;DHT22;5251;52.112;8.606;2024-01-07T08:49:02;1.80;94.70
10411;DHT22;5251;52.112;8.606;2024-01-07T08:51:28;1.90;94.80
10411;DHT22;5251;52.112;8.606;2024-01-07T08:53:55;1.80;94.30
10411;DHT22;5251;52.112;8.606;2024-01-07T08:56:23;1.90;94.50
10411;DHT22;5251;52.112;8.606;2024-01-07T08:58:48;1.80;94.30
10411;DHT22;5251;52.112;8.606;2024-01-07T09:01:14;1.80;93.80
10411;DHT22;5251;52.112;8.606;2024-01-07T09:03:40;1.80;94.00
10411;DHT22;5251;52.112;8.606;2024-01-07T09:06:07;1.80;94.10
10411;DHT22;5251;52.112;8.606;2024-01-07T09:08:33;1.80;93.60
10411;DHT22;5251;52.112;8.606;2024-01-07T09:10:59;1.80;93.70
10411;DHT22;5251;52.112;8.606;2024-01-07T09:13:25;1.80;93.90
10411;DHT22;5251;52.112;8.606;2024-01-07T09:15:51;1.80;93.90
10411;DHT22;5251;52.112;8.606;2024-01-07T09:18:17;1.80;93.50
10411;DHT22;5251;52.112;8.606;2024-01-07T09:20:42;1.80;93.80
10411;DHT22;5251;52.112;8.606;2024-01-07T09:23:08;1.80;93.30
10411;DHT22;5251;52.112;8.606;2024-01-07T09:25:34;1.80;93.40
10411;DHT22;5251;52.112;8.606;2024-01-07T09:28:00;1.80;93.80
10411;DHT22;5251;52.112;8.606;2024-01-07T09:30:26;1.80;93.50
10411;DHT22;5251;52.112;8.606;2024-01-07T09:32:51;1.80;93.00
10411;DHT22;5251;52.112;8.606;2024-01-07T09:35:17;1.80;93.00
10411;DHT22;5251;52.112;8.606;2024-01-07T09:37:43;1.80;93.20
10411;DHT22;5251;52.112;8.606;2024-01-07T09:40:09;1.80;93.60
10411;DHT22;5251;52.112;8.606;2024-01-07T09:42:35;1.90;93.50
10411;DHT22;5251;52.112;8.606;2024-01-07T09:45:04;1.90;93.10
10411;DHT22;5251;52.112;8.606;2024-01-07T09:47:30;1.90;92.90
10411;DHT22;5251;52.112;8.606;2024-01-07T09:49:56;1.90;92.70
10411;DHT22;5251;52.112;8.606;2024-01-07T09:52:22;1.90;93.10
10411;DHT22;5251;52.112;8.606;2024-01-07T09:54:53;2.00;93.20
10411;DHT22;5251;52.112;8.606;2024-01-07T09:57:22;2.10;93.20
10411;DHT22;5251;52.112;8.606;2024-01-07T09:59:47;2.00;92.80
10411;DHT22;5251;52.112;8.606;2024-01-07T10:02:14;2.00;93.00
10411;DHT22;5251;52.112;8.606;2024-01-07T10:04:41;2.10;93.00
10411;DHT22;5251;52.112;8.606;2024-01-07T10:07:06;2.10;93.30
10411;DHT22;5251;52.112;8.606;2024-01-07T10:09:35;2.10;93.30
10411;DHT22;5251;52.112;8.606;2024-01-07T10:12:01;2.20;93.40
10411;DHT22;5251;52.112;8.606;2024-01-07T10:14:28;2.20;93.40
10411;DHT22;5251;52.112;8.606;2024-01-07T10:16:54;2.20;93.40
10411;DHT22;5251;52.112;8.606;2024-01-07T10:19:21;2.20;93.80
10411;DHT22;5251;52.112;8.606;2024-01-07T10:22:04;2.20;94.10
10411;DHT22;5251;52.112;8.606;2024-01-07T10:24:37;2.30;94.00
10411;DHT22;5251;52.112;8.606;2024-01-07T10:27:04;2.30;93.90
10411;DHT22;5251;52.112;8.606;2024-01-07T10:29:32;2.30;93.40
10411;DHT22;5251;52.112;8.606;2024-01-07T10:31:58;2.30;93.40
10411;DHT22;5251;52.112;8.606;2024-01-07T10:34:25;2.40;93.40
10411;DHT22;5251;52.112;8.606;2024-01-07T10:36:54;2.30;93.40
10411;DHT22;5251;52.112;8.606;2024-01-07T10:39:22;2.30;93.40
10411;DHT22;5251;52.112;8.606;2024-01-07T10:41:50;2.30;93.30
10411;DHT22;5251;52.112;8.606;2024-01-07T10:44:19;2.40;93.50
10411;DHT22;5251;52.112;8.606;2024-01-07T10:46:46;2.40;93.50
10411;DHT22;5251;52.112;8.606;2024-01-07T10:49:20;2.50;93.40
10411;DHT22;5251;52.112;8.606;2024-01-07T10:54:19;2.50;93.40
10411;DHT22;5251;52.112;8.606;2024-01-07T10:56:48;2.50;93.50
10411;DHT22;5251;52.112;8.606;2024-01-07T10:59:16;2.60;93.60
10411;DHT22;5251;52.112;8.606;2024-01-07T11:01:43;2.60;93.50
10411;DHT22;5251;52.112;8.606;2024-01-07T11:04:43;2.50;93.40
10411;DHT22;5251;52.112;8.606;2024-01-07T11:07:40;2.60;93.60
10411;DHT22;5251;52.112;8.606;2024-01-07T11:10:43;2.50;93.30
10411;DHT22;5251;52.112;8.606;2024-01-07T11:13:10;2.50;93.70
10411;DHT22;5251;52.112;8.606;2024-01-07T11:18:23;2.60;93.80
10411;DHT22;5251;52.112;8.606;2024-01-07T11:20:49;2.60;93.50
10411;DHT22;5251;52.112;8.606;2024-01-07T11:23:31;2.60;93.90
10411;DHT22;5251;52.112;8.606;2024-01-07T11:26:01;2.70;94.00
10411;DHT22;5251;52.112;8.606;2024-01-07T11:28:45;2.70;93.60
10411;DHT22;5251;52.112;8.606;2024-01-07T11:31:12;2.70;93.40
10411;DHT22;5251;52.112;8.606;2024-01-07T11:33:39;2.70;93.50
10411;DHT22;5251;52.112;8.606;2024-01-07T11:36:07;2.70;93.40
10411;DHT22;5251;52.112;8.606;2024-01-07T11:38:34;2.70;93.50
10411;DHT22;5251;52.112;8.606;2024-01-07T11:41:04;2.80;93.70
10411;DHT22;5251;52.112;8.606;2024-01-07T11:43:31;2.80;93.30
10411;DHT22;5251;52.112;8.606;2024-01-07T11:45:56;2.80;93.10
10411;DHT22;5251;52.112;8.606;2024-01-07T11:48:23;2.80;93.50
10411;DHT22;5251;52.112;8.606;2024-01-07T11:50:48;2.80;93.20
10411;DHT22;5251;52.112;8.606;2024-01-07T11:53:14;2.80;93.40
10411;DHT22;5251;52.112;8.606;2024-01-07T11:55:41;2.80;93.30
10411;DHT22;5251;52.112;8.606;2024-01-07T11:58:06;2.80;93.00
10411;DHT22;5251;52.112;8.606;2024-01-07T12:00:35;2.80;93.50
10411;DHT22;5251;52.112;8.606;2024-01-07T12:03:01;2.80;93.00
10411;DHT22;5251;52.112;8.606;2024-01-07T12:05:28;2.80;93.30
10411;DHT22;5251;52.112;8.606;2024-01-07T12:07:54;2.80;93.20
10411;DHT22;5251;52.112;8.606;2024-01-07T12:10:19;2.80;93.20
10411;DHT22;5251;52.112;8.606;2024-01-07T12:12:45;2.80;92.70
10411;DHT22;5251;52.112;8.606;2024-01-07T12:15:12;2.80;92.70
10411;DHT22;5251;52.112;8.606;2024-01-07T12:17:41;2.80;92.90
10411;DHT22;5251;52.112;8.606;2024-01-07T12:20:08;2.70;92.70
10411;DHT22;5251;52.112;8.606;2024-01-07T12:22:38;2.70;92.70
10411;DHT22;5251;52.112;8.606;2024-01-07T12:25:05;2.70;92.90
10411;DHT22;5251;52.112;8.606;2024-01-07T12:27:32;2.70;92.90
10411;DHT22;5251;52.112;8.606;2024-01-07T12:29:58;2.70;93.40
10411;DHT22;5251;52.112;8.606;2024-01-07T12:32:27;2.70;93.00
10411;DHT22;5251;52.112;8.606;2024-01-07T12:34:53;2.70;93.10
10411;DHT22;5251;52.112;8.606;2024-01-07T12:37:19;2.70;93.10
10411;DHT22;5251;52.112;8.606;2024-01-07T12:39:44;2.80;93.20
10411;DHT22;5251;52.112;8.606;2024-01-07T12:42:10;2.80;93.20
10411;DHT22;5251;52.112;8.606;2024-01-07T12:44:39;2.80;93.00
10411;DHT22;5251;52.112;8.606;2024-01-07T12:47:05;2.80;93.10
10411;DHT22;5251;52.112;8.606;2024-01-07T12:49:31;2.80;93.30
10411;DHT22;5251;52.112;8.606;2024-01-07T12:51:56;2.80;93.50
10411;DHT22;5251;52.112;8.606;2024-01-07T12:54:22;2.80;93.40
10411;DHT22;5251;52.112;8.606;2024-01-07T12:56:49;2.80;93.70
10411;DHT22;5251;52.112;8.606;2024-01-07T12:59:15;2.90;93.80
10411;DHT22;5251;52.112;8.606;2024-01-07T13:01:41;2.90;94.00
10411;DHT22;5251;52.112;8.606;2024-01-07T13:04:07;2.90;94.00
10411;DHT22;5251;52.112;8.606;2024-01-07T13:06:34;3.00;93.90
10411;DHT22;5251;52.112;8.606;2024-01-07T13:09:00;3.00;93.80
10411;DHT22;5251;52.112;8.606;2024-01-07T13:11:29;3.00;94.00
10411;DHT22;5251;52.112;8.606;2024-01-07T13:13:55;3.00;94.10
10411;DHT22;5251;52.112;8.606;2024-01-07T13:16:24;3.10;94.30
10411;DHT22;5251;52.112;8.606;2024-01-07T13:18:50;3.20;94.40
10411;DHT22;5251;52.112;8.606;2024-01-07T13:21:16;3.10;94.10
10411;DHT22;5251;52.112;8.606;2024-01-07T13:23:43;3.20;94.50
10411;DHT22;5251;52.112;8.606;2024-01-07T13:26:10;3.20;94.20
10411;DHT22;5251;52.112;8.606;2024-01-07T13:28:35;3.20;94.40
10411;DHT22;5251;52.112;8.606;2024-01-07T13:31:01;3.20;94.10
10411;DHT22;5251;52.112;8.606;2024-01-07T13:33:29;3.10;94.10
10411;DHT22;5251;52.112;8.606;2024-01-07T13:35:55;3.20;94.10
10411;DHT22;5251;52.112;8.606;2024-01-07T13:38:20;3.10;94.20
10411;DHT22;5251;52.112;8.606;2024-01-07T13:40:47;3.10;94.40
10411;DHT22;5251;52.112;8.606;2024-01-07T13:43:13;3.10;94.30
10411;DHT22;5251;52.112;8.606;2024-01-07T13:45:38;3.10;94.30
10411;DHT22;5251;52.112;8.606;2024-01-07T13:48:04;3.10;94.20
10411;DHT22;5251;52.112;8.606;2024-01-07T13:50:30;3.00;94.20
10411;DHT22;5251;52.112;8.606;2024-01-07T13:52:56;3.10;94.40
10411;DHT22;5251;52.112;8.606;2024-01-07T13:55:21;3.00;94.40
10411;DHT22;5251;52.112;8.606;2024-01-07T13:57:48;3.00;94.50
10411;DHT22;5251;52.112;8.606;2024-01-07T14:00:14;3.00;94.50
10411;DHT22;5251;52.112;8.606;2024-01-07T14:02:44;3.00;94.60
10411;DHT22;5251;52.112;8.606;2024-01-07T14:05:14;3.00;94.40
10411;DHT22;5251;52.112;8.606;2024-01-07T14:07:40;3.00;94.50
10411;DHT22;5251;52.112;8.606;2024-01-07T14:10:07;3.10;94.90
10411;DHT22;5251;52.112;8.606;2024-01-07T14:12:34;3.00;94.50
10411;DHT22;5251;52.112;8.606;2024-01-07T14:15:00;3.00;94.50
10411;DHT22;5251;52.112;8.606;2024-01-07T14:17:25;3.00;94.60
10411;DHT22;5251;52.112;8.606;2024-01-07T14:19:51;3.00;94.60
10411;DHT22;5251;52.112;8.606;2024-01-07T14:22:19;3.00;94.60
10411;DHT22;5251;52.112;8.606;2024-01-07T14:24:46;3.00;94.50
10411;DHT22;5251;52.112;8.606;2024-01-07T14:27:11;3.00;94.70
10411;DHT22;5251;52.112;8.606;2024-01-07T14:29:37;3.00;94.70
10411;DHT22;5251;52.112;8.606;2024-01-07T14:32:04;3.00;94.70
10411;DHT22;5251;52.112;8.606;2024-01-07T14:34:30;3.00;94.60
10411;DHT22;5251;52.112;8.606;2024-01-07T14:36:56;3.00;94.50
10411;DHT22;5251;52.112;8.606;2024-01-07T14:39:21;3.00;94.30
10411;DHT22;5251;52.112;8.606;2024-01-07T14:41:47;3.00;94.10
10411;DHT22;5251;52.112;8.606;2024-01-07T14:44:13;3.00;94.20
10411;DHT22;5251;52.112;8.606;2024-01-07T14:46:39;3.00;94.30
10411;DHT22;5251;52.112;8.606;2024-01-07T14:49:04;3.00;94.10
10411;DHT22;5251;52.112;8.606;2024-01-07T14:51:30;2.90;94.10
10411;DHT22;5251;52.112;8.606;2024-01-07T14:53:57;2.90;94.20
10411;DHT22;5251;52.112;8.606;2024-01-07T14:56:22;2.90;94.20
10411;DHT22;5251;52.112;8.606;2024-01-07T14:58:48;2.90;94.10
10411;DHT22;5251;52.112;8.606;2024-01-07T15:01:14;2.90;94.00
10411;DHT22;5251;52.112;8.606;2024-01-07T15:03:40;2.90;94.10
10411;DHT22;5251;52.112;8.606;2024-01-07T15:06:06;2.80;93.90
10411;DHT22;5251;52.112;8.606;2024-01-07T15:08:33;2.80;94.00
10411;DHT22;5251;52.112;8.606;2024-01-07T15:10:59;2.70;94.00
10411;DHT22;5251;52.112;8.606;2024-01-07T15:13:24;2.70;94.00
10411;DHT22;5251;52.112;8.606;2024-01-07T15:15:52;2.70;93.90
10411;DHT22;5251;52.112;8.606;2024-01-07T15:18:17;2.70;94.00
10411;DHT22;5251;52.112;8.606;2024-01-07T15:20:43;2.60;94.00
10411;DHT22;5251;52.112;8.606;2024-01-07T15:23:09;2.60;94.00
10411;DHT22;5251;52.112;8.606;2024-01-07T15:25:35;2.50;93.80
10411;DHT22;5251;52.112;8.606;2024-01-07T15:28:00;2.50;94.00
10411;DHT22;5251;52.112;8.606;2024-01-07T15:30:26;2.50;94.10
10411;DHT22;5251;52.112;8.606;2024-01-07T15:32:52;2.50;94.10
10411;DHT22;5251;52.112;8.606;2024-01-07T15:35:17;2.50;94.00
10411;DHT22;5251;52.112;8.606;2024-01-07T15:37:43;2.40;93.90
10411;DHT22;5251;52.112;8.606;2024-01-07T15:40:09;2.40;93.90
10411;DHT22;5251;52.112;8.606;2024-01-07T15:42:34;2.40;94.00
10411;DHT22;5251;52.112;8.606;2024-01-07T15:45:00;2.40;94.10
10411;DHT22;5251;52.112;8.606;2024-01-07T15:47:26;2.40;94.20
10411;DHT22;5251;52.112;8.606;2024-01-07T15:49:53;2.40;94.00
10411;DHT22;5251;52.112;8.606;2024-01-07T15:52:18;2.40;94.10
10411;DHT22;5251;52.112;8.606;2024-01-07T15:54:44;2.40;94.10
10411;DHT22;5251;52.112;8.606;2024-01-07T15:57:09;2.40;94.20
10411;DHT22;5251;52.112;8.606;2024-01-07T15:59:35;2.40;94.20
10411;DHT22;5251;52.112;8.606;2024-01-07T16:02:01;2.40;94.20